sensor_id;sensor_type;location;lat;lon;timestamp;P1;durP1;ratioP1;P2;durP2;ratioP2
40541;SDS011;49288;52.194;5.676;2022-12-18T00:00:10;83.60;;;25.38;;
40541;SDS011;49288;52.194;5.676;2022-12-18T00:05:16;77.95;;;22.27;;
40541;SDS011;49288;52.194;5.676;2022-12-18T00:10:18;88.70;;;25.98;;
40541;SDS011;49288;52.194;5.676;2022-12-18T00:15:21;64.50;;;19.45;;
40541;SDS011;49288;52.194;5.676;2022-12-18T00:20:24;73.47;;;22.40;;
40541;SDS011;49288;52.194;5.676;2022-12-18T00:25:51;82.03;;;23.30;;
40541;SDS011;49288;52.194;5.676;2022-12-18T00:31:01;79.67;;;24.47;;
40541;SDS011;49288;52.194;5.676;2022-12-18T00:36:18;74.78;;;23.65;;
40541;SDS011;49288;52.194;5.676;2022-12-18T00:41:22;107.25;;;30.63;;
40541;SDS011;49288;52.194;5.676;2022-12-18T00:46:44;102.65;;;28.20;;
40541;SDS011;49288;52.194;5.676;2022-12-18T00:51:48;90.38;;;25.75;;
40541;SDS011;49288;52.194;5.676;2022-12-18T00:56:51;80.82;;;26.15;;
40541;SDS011;49288;52.194;5.676;2022-12-18T01:01:55;85.90;;;24.87;;
40541;SDS011;49288;52.194;5.676;2022-12-18T01:06:58;85.45;;;26.25;;
40541;SDS011;49288;52.194;5.676;2022-12-18T01:12:01;74.40;;;23.20;;
40541;SDS011;49288;52.194;5.676;2022-12-18T01:17:04;88.78;;;27.40;;
40541;SDS011;49288;52.194;5.676;2022-12-18T01:22:07;63.30;;;19.85;;
40541;SDS011;49288;52.194;5.676;2022-12-18T01:27:11;82.88;;;24.10;;
40541;SDS011;49288;52.194;5.676;2022-12-18T01:32:14;75.90;;;21.73;;
40541;SDS011;49288;52.194;5.676;2022-12-18T01:37:16;57.13;;;19.55;;
40541;SDS011;49288;52.194;5.676;2022-12-18T01:42:20;70.40;;;22.07;;
40541;SDS011;49288;52.194;5.676;2022-12-18T01:47:43;72.78;;;21.88;;
40541;SDS011;49288;52.194;5.676;2022-12-18T01:52:56;61.35;;;20.75;;
40541;SDS011;49288;52.194;5.676;2022-12-18T01:58:01;53.03;;;18.05;;
40541;SDS011;49288;52.194;5.676;2022-12-18T02:03:05;46.95;;;16.35;;
40541;SDS011;49288;52.194;5.676;2022-12-18T02:08:09;56.35;;;18.13;;
40541;SDS011;49288;52.194;5.676;2022-12-18T02:18:47;54.92;;;18.58;;
40541;SDS011;49288;52.194;5.676;2022-12-18T02:23:56;53.55;;;18.20;;
40541;SDS011;49288;52.194;5.676;2022-12-18T02:29:10;52.05;;;17.52;;
40541;SDS011;49288;52.194;5.676;2022-12-18T02:34:16;55.80;;;19.70;;
40541;SDS011;49288;52.194;5.676;2022-12-18T02:39:21;57.60;;;15.75;;
40541;SDS011;49288;52.194;5.676;2022-12-18T02:44:32;53.08;;;15.25;;
40541;SDS011;49288;52.194;5.676;2022-12-18T03:00:45;33.92;;;13.18;;
40541;SDS011;49288;52.194;5.676;2022-12-18T03:05:58;34.20;;;13.18;;
40541;SDS011;49288;52.194;5.676;2022-12-18T03:11:13;36.00;;;11.60;;
40541;SDS011;49288;52.194;5.676;2022-12-18T03:21:28;24.23;;;8.68;;
40541;SDS011;49288;52.194;5.676;2022-12-18T03:26:53;24.13;;;9.95;;
40541;SDS011;49288;52.194;5.676;2022-12-18T03:32:05;35.80;;;11.77;;
40541;SDS011;49288;52.194;5.676;2022-12-18T03:37:12;45.92;;;11.98;;
40541;SDS011;49288;52.194;5.676;2022-12-18T03:42:29;30.00;;;11.30;;
40541;SDS011;49288;52.194;5.676;2022-12-18T03:53:02;61.45;;;13.68;;
40541;SDS011;49288;52.194;5.676;2022-12-18T03:58:25;39.90;;;11.52;;
40541;SDS011;49288;52.194;5.676;2022-12-18T04:03:39;33.10;;;10.47;;
40541;SDS011;49288;52.194;5.676;2022-12-18T04:08:44;35.50;;;11.25;;
40541;SDS011;49288;52.194;5.676;2022-12-18T04:13:56;36.00;;;12.45;;
40541;SDS011;49288;52.194;5.676;2022-12-18T04:18:59;26.80;;;10.38;;
40541;SDS011;49288;52.194;5.676;2022-12-18T04:24:06;30.27;;;11.80;;
40541;SDS011;49288;52.194;5.676;2022-12-18T04:29:12;38.25;;;12.52;;
40541;SDS011;49288;52.194;5.676;2022-12-18T04:34:17;25.52;;;9.85;;
40541;SDS011;49288;52.194;5.676;2022-12-18T04:39:24;23.48;;;10.65;;
40541;SDS011;49288;52.194;5.676;2022-12-18T04:44:31;33.50;;;10.93;;
40541;SDS011;49288;52.194;5.676;2022-12-18T04:49:33;51.00;;;14.07;;
40541;SDS011;49288;52.194;5.676;2022-12-18T04:54:36;38.28;;;13.75;;
40541;SDS011;49288;52.194;5.676;2022-12-18T04:59:38;33.03;;;11.52;;
40541;SDS011;49288;52.194;5.676;2022-12-18T05:04:41;34.53;;;13.38;;
40541;SDS011;49288;52.194;5.676;2022-12-18T05:09:44;22.77;;;7.80;;
40541;SDS011;49288;52.194;5.676;2022-12-18T05:14:47;43.05;;;13.98;;
40541;SDS011;49288;52.194;5.676;2022-12-18T05:19:50;25.58;;;8.68;;
40541;SDS011;49288;52.194;5.676;2022-12-18T05:24:52;24.60;;;8.85;;
40541;SDS011;49288;52.194;5.676;2022-12-18T05:29:55;28.90;;;8.45;;
40541;SDS011;49288;52.194;5.676;2022-12-18T05:34:57;28.08;;;10.32;;
40541;SDS011;49288;52.194;5.676;2022-12-18T05:40:00;30.48;;;9.90;;
40541;SDS011;49288;52.194;5.676;2022-12-18T05:45:04;45.50;;;14.63;;
40541;SDS011;49288;52.194;5.676;2022-12-18T05:50:07;42.50;;;12.55;;
40541;SDS011;49288;52.194;5.676;2022-12-18T05:55:10;25.00;;;9.32;;
40541;SDS011;49288;52.194;5.676;2022-12-18T06:00:12;37.45;;;12.30;;
40541;SDS011;49288;52.194;5.676;2022-12-18T06:05:15;37.50;;;12.48;;
40541;SDS011;49288;52.194;5.676;2022-12-18T06:10:20;42.17;;;15.27;;
40541;SDS011;49288;52.194;5.676;2022-12-18T06:15:22;34.13;;;12.98;;
40541;SDS011;49288;52.194;5.676;2022-12-18T06:20:25;19.73;;;7.78;;
40541;SDS011;49288;52.194;5.676;2022-12-18T06:25:36;26.90;;;10.93;;
40541;SDS011;49288;52.194;5.676;2022-12-18T06:30:42;40.25;;;14.07;;
40541;SDS011;49288;52.194;5.676;2022-12-18T06:35:46;22.50;;;9.43;;
40541;SDS011;49288;52.194;5.676;2022-12-18T06:40:49;28.42;;;10.45;;
40541;SDS011;49288;52.194;5.676;2022-12-18T06:45:57;29.63;;;11.93;;
40541;SDS011;49288;52.194;5.676;2022-12-18T06:51:03;23.42;;;8.77;;
40541;SDS011;49288;52.194;5.676;2022-12-18T06:56:06;27.85;;;11.85;;
40541;SDS011;49288;52.194;5.676;2022-12-18T07:01:12;41.85;;;16.73;;
40541;SDS011;49288;52.194;5.676;2022-12-18T07:06:16;42.53;;;17.30;;
40541;SDS011;49288;52.194;5.676;2022-12-18T07:11:20;48.30;;;16.08;;
40541;SDS011;49288;52.194;5.676;2022-12-18T07:16:23;46.22;;;18.35;;
40541;SDS011;49288;52.194;5.676;2022-12-18T07:21:27;59.33;;;20.20;;
40541;SDS011;49288;52.194;5.676;2022-12-18T07:26:29;48.95;;;18.95;;
40541;SDS011;49288;52.194;5.676;2022-12-18T07:31:32;60.13;;;20.63;;
40541;SDS011;49288;52.194;5.676;2022-12-18T07:36:35;57.20;;;21.13;;
40541;SDS011;49288;52.194;5.676;2022-12-18T07:41:38;71.72;;;29.88;;
40541;SDS011;49288;52.194;5.676;2022-12-18T07:46:50;40.08;;;17.08;;
40541;SDS011;49288;52.194;5.676;2022-12-18T07:52:11;118.68;;;42.88;;
40541;SDS011;49288;52.194;5.676;2022-12-18T07:57:14;113.53;;;37.85;;
40541;SDS011;49288;52.194;5.676;2022-12-18T08:02:38;113.63;;;37.92;;
40541;SDS011;49288;52.194;5.676;2022-12-18T08:07:40;135.77;;;43.47;;
40541;SDS011;49288;52.194;5.676;2022-12-18T08:12:43;98.93;;;28.60;;
40541;SDS011;49288;52.194;5.676;2022-12-18T08:17:46;129.95;;;33.50;;
40541;SDS011;49288;52.194;5.676;2022-12-18T08:22:48;68.55;;;20.80;;
40541;SDS011;49288;52.194;5.676;2022-12-18T08:27:51;89.70;;;26.92;;
40541;SDS011;49288;52.194;5.676;2022-12-18T08:32:54;208.75;;;46.05;;
40541;SDS011;49288;52.194;5.676;2022-12-18T08:37:59;139.65;;;35.38;;
40541;SDS011;49288;52.194;5.676;2022-12-18T08:43:02;156.82;;;38.05;;
40541;SDS011;49288;52.194;5.676;2022-12-18T08:48:23;175.88;;;41.97;;
40541;SDS011;49288;52.194;5.676;2022-12-18T08:53:26;166.18;;;39.35;;
40541;SDS011;49288;52.194;5.676;2022-12-18T08:58:36;158.55;;;40.03;;
40541;SDS011;49288;52.194;5.676;2022-12-18T09:03:39;207.75;;;46.22;;
40541;SDS011;49288;52.194;5.676;2022-12-18T09:08:45;166.73;;;40.50;;
40541;SDS011;49288;52.194;5.676;2022-12-18T09:13:48;148.60;;;35.90;;
40541;SDS011;49288;52.194;5.676;2022-12-18T09:18:51;185.82;;;43.35;;
40541;SDS011;49288;52.194;5.676;2022-12-18T09:24:01;180.07;;;39.20;;
40541;SDS011;49288;52.194;5.676;2022-12-18T09:29:04;167.63;;;39.80;;
40541;SDS011;49288;52.194;5.676;2022-12-18T09:34:09;155.95;;;35.53;;
40541;SDS011;49288;52.194;5.676;2022-12-18T09:39:12;184.85;;;38.72;;
40541;SDS011;49288;52.194;5.676;2022-12-18T09:44:34;196.45;;;44.20;;
40541;SDS011;49288;52.194;5.676;2022-12-18T09:49:47;169.43;;;39.17;;
40541;SDS011;49288;52.194;5.676;2022-12-18T09:55:03;158.32;;;41.88;;
40541;SDS011;49288;52.194;5.676;2022-12-18T10:00:17;73.13;;;19.55;;
40541;SDS011;49288;52.194;5.676;2022-12-18T10:10:48;159.05;;;34.70;;
40541;SDS011;49288;52.194;5.676;2022-12-18T10:15:57;121.07;;;30.15;;
40541;SDS011;49288;52.194;5.676;2022-12-18T10:21:16;108.55;;;29.58;;
40541;SDS011;49288;52.194;5.676;2022-12-18T10:26:21;115.30;;;31.80;;
40541;SDS011;49288;52.194;5.676;2022-12-18T10:31:24;79.32;;;24.30;;
40541;SDS011;49288;52.194;5.676;2022-12-18T10:36:28;92.50;;;24.70;;
40541;SDS011;49288;52.194;5.676;2022-12-18T10:41:32;92.67;;;29.83;;
40541;SDS011;49288;52.194;5.676;2022-12-18T10:46:35;52.47;;;17.15;;
40541;SDS011;49288;52.194;5.676;2022-12-18T10:51:38;37.47;;;13.63;;
40541;SDS011;49288;52.194;5.676;2022-12-18T10:56:41;81.63;;;24.15;;
40541;SDS011;49288;52.194;5.676;2022-12-18T11:01:53;84.53;;;26.52;;
40541;SDS011;49288;52.194;5.676;2022-12-18T11:07:02;70.68;;;23.63;;
40541;SDS011;49288;52.194;5.676;2022-12-18T11:12:18;66.63;;;23.05;;
40541;SDS011;49288;52.194;5.676;2022-12-18T11:17:22;72.93;;;25.55;;
40541;SDS011;49288;52.194;5.676;2022-12-18T11:22:35;56.58;;;21.42;;
40541;SDS011;49288;52.194;5.676;2022-12-18T11:27:39;46.13;;;19.45;;
40541;SDS011;49288;52.194;5.676;2022-12-18T11:32:43;35.13;;;13.43;;
40541;SDS011;49288;52.194;5.676;2022-12-18T11:37:54;46.00;;;17.58;;
40541;SDS011;49288;52.194;5.676;2022-12-18T11:43:09;39.78;;;16.70;;
40541;SDS011;49288;52.194;5.676;2022-12-18T11:48:21;44.55;;;17.02;;
40541;SDS011;49288;52.194;5.676;2022-12-18T11:53:28;44.63;;;18.55;;
40541;SDS011;49288;52.194;5.676;2022-12-18T12:04:09;41.58;;;16.80;;
40541;SDS011;49288;52.194;5.676;2022-12-18T12:14:50;42.47;;;16.15;;
40541;SDS011;49288;52.194;5.676;2022-12-18T12:30:39;29.60;;;11.73;;
40541;SDS011;49288;52.194;5.676;2022-12-18T12:35:57;37.25;;;16.83;;
40541;SDS011;49288;52.194;5.676;2022-12-18T12:41:09;45.42;;;18.73;;
40541;SDS011;49288;52.194;5.676;2022-12-18T12:46:37;31.88;;;13.80;;
40541;SDS011;49288;52.194;5.676;2022-12-18T12:51:42;37.15;;;15.38;;
40541;SDS011;49288;52.194;5.676;2022-12-18T12:56:50;36.42;;;14.38;;
40541;SDS011;49288;52.194;5.676;2022-12-18T13:02:02;36.38;;;15.30;;
40541;SDS011;49288;52.194;5.676;2022-12-18T13:07:27;40.25;;;15.30;;
40541;SDS011;49288;52.194;5.676;2022-12-18T13:12:35;39.72;;;14.85;;
40541;SDS011;49288;52.194;5.676;2022-12-18T13:23:32;42.50;;;17.73;;
40541;SDS011;49288;52.194;5.676;2022-12-18T13:33:48;33.72;;;15.27;;
40541;SDS011;49288;52.194;5.676;2022-12-18T13:44:32;35.95;;;13.10;;
40541;SDS011;49288;52.194;5.676;2022-12-18T13:49:43;30.33;;;13.00;;
40541;SDS011;49288;52.194;5.676;2022-12-18T13:55:20;35.10;;;14.20;;
40541;SDS011;49288;52.194;5.676;2022-12-18T14:00:24;23.67;;;9.32;;
40541;SDS011;49288;52.194;5.676;2022-12-18T14:05:32;35.70;;;15.68;;
40541;SDS011;49288;52.194;5.676;2022-12-18T14:10:40;34.50;;;13.68;;
40541;SDS011;49288;52.194;5.676;2022-12-18T14:15:50;33.73;;;15.47;;
40541;SDS011;49288;52.194;5.676;2022-12-18T14:20:54;37.72;;;15.18;;
40541;SDS011;49288;52.194;5.676;2022-12-18T14:26:01;36.38;;;14.65;;
40541;SDS011;49288;52.194;5.676;2022-12-18T14:31:16;29.35;;;12.80;;
40541;SDS011;49288;52.194;5.676;2022-12-18T14:36:24;34.05;;;15.10;;
40541;SDS011;49288;52.194;5.676;2022-12-18T14:41:27;33.65;;;14.43;;
40541;SDS011;49288;52.194;5.676;2022-12-18T14:51:41;36.10;;;15.45;;
40541;SDS011;49288;52.194;5.676;2022-12-18T14:56:59;24.77;;;11.15;;
40541;SDS011;49288;52.194;5.676;2022-12-18T15:07:26;28.55;;;12.30;;
40541;SDS011;49288;52.194;5.676;2022-12-18T15:17:37;36.05;;;13.65;;
40541;SDS011;49288;52.194;5.676;2022-12-18T15:22:40;48.75;;;17.48;;
40541;SDS011;49288;52.194;5.676;2022-12-18T15:27:45;32.50;;;12.38;;
40541;SDS011;49288;52.194;5.676;2022-12-18T15:32:48;36.45;;;15.48;;
40541;SDS011;49288;52.194;5.676;2022-12-18T15:37:51;36.40;;;15.35;;
40541;SDS011;49288;52.194;5.676;2022-12-18T15:42:54;40.47;;;14.63;;
40541;SDS011;49288;52.194;5.676;2022-12-18T15:48:20;40.45;;;15.27;;
40541;SDS011;49288;52.194;5.676;2022-12-18T15:53:31;38.75;;;16.77;;
40541;SDS011;49288;52.194;5.676;2022-12-18T15:58:35;38.63;;;14.95;;
40541;SDS011;49288;52.194;5.676;2022-12-18T16:03:38;45.45;;;19.17;;
40541;SDS011;49288;52.194;5.676;2022-12-18T16:08:41;39.22;;;16.58;;
40541;SDS011;49288;52.194;5.676;2022-12-18T16:13:44;41.00;;;16.35;;
40541;SDS011;49288;52.194;5.676;2022-12-18T16:18:47;50.38;;;17.85;;
40541;SDS011;49288;52.194;5.676;2022-12-18T16:23:50;41.42;;;16.48;;
40541;SDS011;49288;52.194;5.676;2022-12-18T16:28:53;42.70;;;17.58;;
40541;SDS011;49288;52.194;5.676;2022-12-18T16:39:19;38.47;;;15.67;;
40541;SDS011;49288;52.194;5.676;2022-12-18T16:49:27;43.88;;;17.02;;
40541;SDS011;49288;52.194;5.676;2022-12-18T16:54:30;21.65;;;9.88;;
40541;SDS011;49288;52.194;5.676;2022-12-18T16:59:36;33.00;;;14.15;;
40541;SDS011;49288;52.194;5.676;2022-12-18T17:04:39;36.00;;;14.45;;
40541;SDS011;49288;52.194;5.676;2022-12-18T17:09:41;37.38;;;16.30;;
40541;SDS011;49288;52.194;5.676;2022-12-18T17:14:44;44.00;;;17.52;;
40541;SDS011;49288;52.194;5.676;2022-12-18T17:19:47;46.13;;;19.35;;
40541;SDS011;49288;52.194;5.676;2022-12-18T17:24:50;51.42;;;19.45;;
40541;SDS011;49288;52.194;5.676;2022-12-18T17:29:54;60.58;;;21.73;;
40541;SDS011;49288;52.194;5.676;2022-12-18T17:34:56;50.70;;;20.83;;
40541;SDS011;49288;52.194;5.676;2022-12-18T17:40:06;52.70;;;20.60;;
40541;SDS011;49288;52.194;5.676;2022-12-18T17:45:11;55.35;;;20.35;;
40541;SDS011;49288;52.194;5.676;2022-12-18T17:50:13;54.40;;;20.92;;
40541;SDS011;49288;52.194;5.676;2022-12-18T17:55:16;55.58;;;22.77;;
40541;SDS011;49288;52.194;5.676;2022-12-18T18:00:38;50.05;;;16.88;;
40541;SDS011;49288;52.194;5.676;2022-12-18T18:05:40;50.08;;;20.02;;
40541;SDS011;49288;52.194;5.676;2022-12-18T18:10:43;51.05;;;19.30;;
40541;SDS011;49288;52.194;5.676;2022-12-18T18:15:59;53.85;;;20.65;;
40541;SDS011;49288;52.194;5.676;2022-12-18T18:21:05;50.13;;;20.88;;
40541;SDS011;49288;52.194;5.676;2022-12-18T18:26:09;54.13;;;21.25;;
40541;SDS011;49288;52.194;5.676;2022-12-18T18:31:11;54.45;;;19.23;;
40541;SDS011;49288;52.194;5.676;2022-12-18T18:36:16;50.63;;;20.20;;
40541;SDS011;49288;52.194;5.676;2022-12-18T18:41:19;58.60;;;22.87;;
40541;SDS011;49288;52.194;5.676;2022-12-18T18:46:25;50.38;;;20.15;;
40541;SDS011;49288;52.194;5.676;2022-12-18T18:51:30;60.72;;;22.02;;
40541;SDS011;49288;52.194;5.676;2022-12-18T18:56:36;54.42;;;22.40;;
40541;SDS011;49288;52.194;5.676;2022-12-18T19:01:59;55.33;;;20.23;;
40541;SDS011;49288;52.194;5.676;2022-12-18T19:07:06;51.28;;;20.38;;
40541;SDS011;49288;52.194;5.676;2022-12-18T19:12:09;75.97;;;23.57;;
40541;SDS011;49288;52.194;5.676;2022-12-18T19:17:31;55.50;;;22.17;;
40541;SDS011;49288;52.194;5.676;2022-12-18T19:22:36;43.53;;;17.38;;
40541;SDS011;49288;52.194;5.676;2022-12-18T19:27:38;53.70;;;20.80;;
40541;SDS011;49288;52.194;5.676;2022-12-18T19:32:42;52.45;;;20.35;;
40541;SDS011;49288;52.194;5.676;2022-12-18T19:37:46;62.60;;;24.67;;
40541;SDS011;49288;52.194;5.676;2022-12-18T19:42:49;54.78;;;21.35;;
40541;SDS011;49288;52.194;5.676;2022-12-18T19:48:10;52.83;;;20.75;;
40541;SDS011;49288;52.194;5.676;2022-12-18T19:53:13;52.63;;;21.83;;
40541;SDS011;49288;52.194;5.676;2022-12-18T19:58:16;55.55;;;21.95;;
40541;SDS011;49288;52.194;5.676;2022-12-18T20:03:21;51.58;;;19.20;;
40541;SDS011;49288;52.194;5.676;2022-12-18T20:08:33;62.10;;;23.52;;
40541;SDS011;49288;52.194;5.676;2022-12-18T20:13:38;62.92;;;22.10;;
40541;SDS011;49288;52.194;5.676;2022-12-18T20:18:41;54.08;;;23.00;;
40541;SDS011;49288;52.194;5.676;2022-12-18T20:23:45;56.88;;;20.95;;
40541;SDS011;49288;52.194;5.676;2022-12-18T20:28:48;58.30;;;22.92;;
40541;SDS011;49288;52.194;5.676;2022-12-18T20:33:50;62.13;;;24.17;;
40541;SDS011;49288;52.194;5.676;2022-12-18T20:38:56;54.58;;;21.60;;
40541;SDS011;49288;52.194;5.676;2022-12-18T20:44:03;60.22;;;23.45;;
40541;SDS011;49288;52.194;5.676;2022-12-18T20:49:24;58.17;;;21.35;;
40541;SDS011;49288;52.194;5.676;2022-12-18T20:54:27;70.70;;;26.15;;
40541;SDS011;49288;52.194;5.676;2022-12-18T20:59:31;30.33;;;12.13;;
40541;SDS011;49288;52.194;5.676;2022-12-18T21:04:33;64.53;;;24.05;;
40541;SDS011;49288;52.194;5.676;2022-12-18T21:09:36;53.80;;;21.60;;
40541;SDS011;49288;52.194;5.676;2022-12-18T21:14:39;80.88;;;29.52;;
40541;SDS011;49288;52.194;5.676;2022-12-18T21:19:42;44.80;;;16.52;;
40541;SDS011;49288;52.194;5.676;2022-12-18T21:29:49;47.45;;;19.25;;
40541;SDS011;49288;52.194;5.676;2022-12-18T21:34:53;59.83;;;22.47;;
40541;SDS011;49288;52.194;5.676;2022-12-18T21:39:56;59.47;;;22.13;;
40541;SDS011;49288;52.194;5.676;2022-12-18T21:44:59;73.35;;;27.08;;
40541;SDS011;49288;52.194;5.676;2022-12-18T21:50:02;59.78;;;21.83;;
40541;SDS011;49288;52.194;5.676;2022-12-18T21:55:06;73.63;;;28.30;;
40541;SDS011;49288;52.194;5.676;2022-12-18T22:00:14;40.88;;;17.15;;
40541;SDS011;49288;52.194;5.676;2022-12-18T22:05:20;62.80;;;21.98;;
40541;SDS011;49288;52.194;5.676;2022-12-18T22:10:23;78.72;;;28.30;;
40541;SDS011;49288;52.194;5.676;2022-12-18T22:15:26;68.07;;;26.33;;
40541;SDS011;49288;52.194;5.676;2022-12-18T22:20:28;47.58;;;14.98;;
40541;SDS011;49288;52.194;5.676;2022-12-18T22:25:31;80.13;;;28.10;;
40541;SDS011;49288;52.194;5.676;2022-12-18T22:30:36;79.95;;;29.35;;
40541;SDS011;49288;52.194;5.676;2022-12-18T22:35:42;57.90;;;21.65;;
40541;SDS011;49288;52.194;5.676;2022-12-18T22:40:45;89.97;;;30.10;;
40541;SDS011;49288;52.194;5.676;2022-12-18T22:45:49;71.18;;;24.08;;
40541;SDS011;49288;52.194;5.676;2022-12-18T22:50:52;63.70;;;23.65;;
40541;SDS011;49288;52.194;5.676;2022-12-18T22:56:00;83.93;;;29.55;;
40541;SDS011;49288;52.194;5.676;2022-12-18T23:01:04;65.88;;;23.50;;
40541;SDS011;49288;52.194;5.676;2022-12-18T23:06:08;71.47;;;24.85;;
40541;SDS011;49288;52.194;5.676;2022-12-18T23:11:11;65.93;;;23.02;;
40541;SDS011;49288;52.194;5.676;2022-12-18T23:16:16;80.93;;;29.77;;
40541;SDS011;49288;52.194;5.676;2022-12-18T23:21:20;59.72;;;22.42;;
40541;SDS011;49288;52.194;5.676;2022-12-18T23:26:24;67.82;;;25.27;;
40541;SDS011;49288;52.194;5.676;2022-12-18T23:31:27;67.28;;;23.88;;
40541;SDS011;49288;52.194;5.676;2022-12-18T23:36:36;94.82;;;32.13;;
40541;SDS011;49288;52.194;5.676;2022-12-18T23:41:47;40.70;;;13.73;;
40541;SDS011;49288;52.194;5.676;2022-12-18T23:46:52;60.33;;;21.30;;
40541;SDS011;49288;52.194;5.676;2022-12-18T23:51:55;83.15;;;29.85;;
40541;SDS011;49288;52.194;5.676;2022-12-18T23:56:58;73.30;;;27.50;;
